YSSY/SYD METAR and TAF weather

Enter ICAO airport designator
Station Type Date Time Source
YSSY METAR 2019/02/16 17:00 UTC NOAA

YSSY 161700Z 31004KT CAVOK 21/17 Q1014 NOSIG


Station Type Date Time Source
YSSY Decoded METAR 2019/02/16 17:00 UTC NOAA

Sydney Airport, Australia (YSSY) 33-57S 151-11E 3M
Feb 16, 2019 - 12:00 PM EST / 2019.02.16 1700 UTC
Wind: from the NW (310 degrees) at 5 MPH (4 KT):0
Visibility: greater than 7 mile(s):0
Temperature: 69 F (21 C)
Dew Point: 62 F (17 C)
Relative Humidity: 77%
Pressure (altimeter): 29.94 in. Hg (1014 hPa)
ob: YSSY 161700Z 31004KT CAVOK 21/17 Q1014 NOSIG
cycle: 17

Station Type Date Time Source
YSSY TAF 2019/02/16 18:03 UTC NOAA

TAF YSSY 161632Z 1618/1724 33008KT CAVOK
FM162300 01010KT CAVOK
FM170300 04018KT CAVOK
FM170900 01015KT CAVOK
FM171300 01008KT CAVOK


Example: see airport list